Lake Orion, MI

5:41 AM EDT on September 23, 2014 (GMT -0400)
Oakland County International | Change Station
CLOSE
Current Station
Airport
Location: Pontiac,
Elevation: 981 ft
Nearby Weather Stations

Elev 981 ft 42.67 °N, 83.42 °W | Updated 48 minutes ago

Clear
Clear
44 °F
Feels Like 44 °F
N
0
Wind Variable Wind from North

Today
High -- | Low -- °F
--% Chance of Precip.
Yesterday
High -- | Low -- °F
Precip. -- in
7:21 AM 7:28 PM
Waning Crescent, 1% visible
Pressure 30.29 in
Visibility 10.0 miles
Clouds Clear
Dew Point 41 °F
Humidity 89%
Rainfall 0.00 in
Snow Depth Not available.
UV 0 out of 12
Pollen 3.50 out of 12
Ozone Good
PM2.5 Moderate
Flu Activity Not available.
METAR KPTK 230853Z 00000KT 10SM CLR 07/05 A3028 RMK AO2 SLP256 T00670050 53005

More Conditions Fewer Conditions

Pressure 30.29 in
Visibility 10.0 miles
Clouds Clear
Dew Point 41 °F
Humidity 89%
Rainfall 0.00 in
Snow Depth Not available.
UV 0 out of 12
Pollen 3.50 out of 12
Ozone Good
PM2.5 Moderate
Flu Activity Not available.
METAR KPTK 230853Z 00000KT 10SM CLR 07/05 A3028 RMK AO2 SLP256 T00670050 53005

More Conditions Fewer Conditions

10-Day Weather Forecast

Almanac

Astronomy

Sep. 23, 2014 Rise Set
Actual Time 7:21 AM EDT 7:28 PM EDT
Civil Twilight 6:53 AM EDT 7:56 PM EDT
Nautical Twilight 6:20 AM EDT 8:29 PM EDT
Astronomical Twilight 5:46 AM EDT 9:03 PM EDT
Moon 6:44 AM EDT 7:06 PM EDT
Length of Visible Light 13h 03m
Length of Day
12h 07m
Tomorrow will be 2m 53s shorter.
Waning Crescent, 1% of the Moon is Illuminated
Today
Waning Crescent
Sep 24
New
Oct 1
First Quarter
Oct 8
Full
Oct 15
Last Quarter

Today's Extremes

State Highs State Lows

Community

WunderPhotos

Upload Photos

1,755,644 photos uploaded!

Nearby

Air Quality

  Air Quality AQ Index Pollutant
Yesterday Good
PM10
Yesterday Good
OZONE
Current Moderate
PM2.5
Current Good
OZONE
Tuesday Good
OZONE
Tuesday Good
PM2.5
Wednesday Good
OZONE
Wednesday Good
PM2.5
Thursday Good
OZONE
Thursday Good
PM2.5
Friday Good
OZONE
Friday Good
PM2.5
Saturday Good
OZONE
Saturday Good
PM2.5

Snow Depth

Station Depth Elevation
No new snow has been reported.

Earthquake Activity

City Distance Mag. Time & Date
No recent earthquake activity has been reported nearby.
Minimum magnitude displayed is 2.5.

Coastal Water Temperatures

Place Temperature
No Stations Reporting

Nearby Weather Stations